createdAt,value
2022-12-22T00:02:38.439Z,5.70
2022-12-22T00:05:43.123Z,5.40
2022-12-22T00:08:29.097Z,6.13
2022-12-22T00:11:15.342Z,5.30
2022-12-22T00:14:02.763Z,4.38
2022-12-22T00:16:53.733Z,5.00
2022-12-22T00:19:39.486Z,4.55
2022-12-22T00:22:54.160Z,4.05
2022-12-22T00:25:39.767Z,4.03
2022-12-22T00:28:32.326Z,4.28
2022-12-22T00:31:17.892Z,3.90
2022-12-22T00:34:03.274Z,3.90
2022-12-22T00:36:48.685Z,3.53
2022-12-22T00:39:34.157Z,3.80
2022-12-22T00:42:19.669Z,3.40
2022-12-22T00:45:04.934Z,3.65
2022-12-22T00:47:50.356Z,3.40
2022-12-22T00:50:36.384Z,3.30
2022-12-22T00:53:22.136Z,3.10
2022-12-22T00:56:07.966Z,3.58
2022-12-22T00:58:53.509Z,3.22
2022-12-22T01:01:38.855Z,3.10
2022-12-22T01:04:24.158Z,3.30
2022-12-22T01:07:09.667Z,3.28
2022-12-22T01:09:55.068Z,2.65
2022-12-22T01:12:43.178Z,3.00
2022-12-22T01:15:34.702Z,2.33
2022-12-22T01:18:19.866Z,2.78
2022-12-22T01:21:05.327Z,3.03
2022-12-22T01:23:50.870Z,2.80
2022-12-22T01:26:36.104Z,2.70
2022-12-22T01:29:22.386Z,2.80
2022-12-22T01:32:07.888Z,2.90
2022-12-22T01:34:54.657Z,2.50
2022-12-22T01:37:40.181Z,2.53
2022-12-22T01:40:38.089Z,2.70
2022-12-22T01:43:44.828Z,2.50
2022-12-22T01:46:47.840Z,2.55
2022-12-22T01:49:43.364Z,2.22
2022-12-22T01:52:30.143Z,2.20
2022-12-22T01:55:19.219Z,2.25
2022-12-22T01:58:04.509Z,2.20
2022-12-22T02:00:49.993Z,3.90
2022-12-22T02:03:37.790Z,2.25
2022-12-22T02:06:42.542Z,2.10
2022-12-22T02:10:02.931Z,2.22
2022-12-22T02:13:12.560Z,2.50
2022-12-22T02:16:05.419Z,2.25
2022-12-22T02:18:57.229Z,2.30
2022-12-22T02:21:44.298Z,1.90
2022-12-22T02:24:36.684Z,2.13
2022-12-22T02:27:22.124Z,2.08
2022-12-22T02:30:12.188Z,2.03
2022-12-22T02:33:08.917Z,1.95
2022-12-22T02:36:05.279Z,2.33
2022-12-22T02:39:20.467Z,1.88
2022-12-22T02:42:22.396Z,2.00
2022-12-22T02:45:24.801Z,1.90
2022-12-22T02:48:32.149Z,1.88
2022-12-22T02:51:25.765Z,1.98
2022-12-22T02:54:11.918Z,2.13
2022-12-22T02:59:45.012Z,1.90
2022-12-22T03:02:31.871Z,2.85
2022-12-22T03:05:17.819Z,1.55
2022-12-22T03:08:08.194Z,2.00
2022-12-22T03:10:54.390Z,1.83
2022-12-22T03:13:39.847Z,1.75
2022-12-22T03:16:25.118Z,1.77
2022-12-22T03:19:10.567Z,1.77
2022-12-22T03:21:56.998Z,1.90
2022-12-22T03:24:42.444Z,1.70
2022-12-22T03:27:09.333Z,1.75
2022-12-22T03:29:36.120Z,1.40
2022-12-22T03:32:03.034Z,1.60
2022-12-22T03:34:29.805Z,1.75
2022-12-22T03:36:56.605Z,1.67
2022-12-22T03:39:23.360Z,1.50
2022-12-22T03:42:08.719Z,1.60
2022-12-22T03:44:54.226Z,1.80
2022-12-22T03:47:21.026Z,1.50
2022-12-22T03:49:47.932Z,1.70
2022-12-22T03:52:14.794Z,1.50
2022-12-22T03:54:41.691Z,1.55
2022-12-22T03:57:08.537Z,1.58
2022-12-22T03:59:35.378Z,1.50
2022-12-22T04:02:02.398Z,1.48
2022-12-22T04:04:29.456Z,1.52
2022-12-22T04:06:56.363Z,1.60
2022-12-22T04:09:24.777Z,1.70
2022-12-22T04:12:10.391Z,1.45
2022-12-22T04:14:37.312Z,1.48
2022-12-22T04:17:06.025Z,1.50
2022-12-22T04:19:33.023Z,1.42
2022-12-22T04:22:00.216Z,1.00
2022-12-22T04:24:27.088Z,1.50
2022-12-22T04:26:54.097Z,1.42
2022-12-22T04:29:20.969Z,1.52
2022-12-22T04:31:48.009Z,1.52
2022-12-22T04:34:14.985Z,1.50
2022-12-22T04:36:41.832Z,1.50
2022-12-22T04:39:08.783Z,1.50
2022-12-22T04:41:35.648Z,1.40
2022-12-22T04:44:02.540Z,1.13
2022-12-22T04:46:29.547Z,1.48
2022-12-22T04:49:00.177Z,1.10
2022-12-22T04:51:28.140Z,1.20
2022-12-22T04:53:54.995Z,1.38
2022-12-22T04:58:49.074Z,1.00
2022-12-22T05:01:17.563Z,1.13
2022-12-22T05:03:44.809Z,0.93
2022-12-22T05:06:11.892Z,1.20
2022-12-22T05:08:39.091Z,1.02
2022-12-22T05:11:06.559Z,1.00
2022-12-22T05:13:33.691Z,1.13
2022-12-22T05:16:12.595Z,1.00
2022-12-22T05:18:41.048Z,1.00
2022-12-22T05:21:11.346Z,1.00
2022-12-22T05:23:38.474Z,1.83
2022-12-22T05:26:05.569Z,1.00
2022-12-22T05:28:32.562Z,1.00
2022-12-22T05:31:08.041Z,1.00
2022-12-22T05:33:35.242Z,0.90
2022-12-22T05:36:02.671Z,0.90
2022-12-22T05:38:29.594Z,1.00
2022-12-22T05:41:03.253Z,1.00
2022-12-22T05:43:31.301Z,0.95
2022-12-22T05:46:01.173Z,1.20
2022-12-22T05:48:33.657Z,0.90
2022-12-22T05:51:04.417Z,0.90
2022-12-22T05:53:31.381Z,1.00
2022-12-22T05:55:58.622Z,1.10
2022-12-22T05:58:25.699Z,1.20
2022-12-22T06:00:52.665Z,1.58
2022-12-22T06:03:19.767Z,12.15
2022-12-22T06:05:50.509Z,20.17
2022-12-22T06:08:17.469Z,16.08
2022-12-22T06:10:44.403Z,12.73
2022-12-22T06:13:11.332Z,11.57
2022-12-22T06:15:38.272Z,11.00
2022-12-22T06:18:05.238Z,27.20
2022-12-22T06:20:32.244Z,54.15
2022-12-22T06:22:59.238Z,47.80
2022-12-22T06:25:26.188Z,45.88
2022-12-22T06:27:53.150Z,41.67
2022-12-22T06:30:20.207Z,36.85
2022-12-22T06:32:47.259Z,32.15
2022-12-22T06:35:14.378Z,30.40
2022-12-22T06:37:41.413Z,28.85
2022-12-22T06:40:09.542Z,26.08
2022-12-22T06:42:54.701Z,24.25
2022-12-22T06:45:21.661Z,21.80
2022-12-22T06:50:15.964Z,20.08
2022-12-22T06:52:43.125Z,18.52
2022-12-22T06:55:10.104Z,16.70
2022-12-22T06:57:37.069Z,16.17
2022-12-22T07:00:05.220Z,16.15
2022-12-22T07:02:32.494Z,15.77
2022-12-22T07:04:59.604Z,15.13
2022-12-22T07:07:26.560Z,14.13
2022-12-22T07:09:54.333Z,13.20
2022-12-22T07:12:21.825Z,12.38
2022-12-22T07:14:48.724Z,13.13
2022-12-22T07:17:15.813Z,11.63
2022-12-22T07:19:42.826Z,12.57
2022-12-22T07:22:09.842Z,12.05
2022-12-22T07:24:36.741Z,11.18
2022-12-22T07:27:03.766Z,10.63
2022-12-22T07:29:30.733Z,10.70
2022-12-22T07:31:57.859Z,10.30
2022-12-22T07:34:24.848Z,10.68
2022-12-22T07:36:51.784Z,9.82
2022-12-22T07:39:18.780Z,9.57
2022-12-22T07:42:04.209Z,9.43
2022-12-22T07:44:31.154Z,9.20
2022-12-22T07:46:58.214Z,8.73
2022-12-22T07:49:43.955Z,42.05
2022-12-22T07:52:10.861Z,45.53
2022-12-22T07:54:41.781Z,41.00
2022-12-22T07:57:09.247Z,34.67
2022-12-22T07:59:36.235Z,28.90
2022-12-22T08:02:03.130Z,26.73
2022-12-22T08:04:30.120Z,25.67
2022-12-22T08:06:56.984Z,23.40
2022-12-22T08:09:23.919Z,22.23
2022-12-22T08:11:50.908Z,20.13
2022-12-22T08:14:17.909Z,19.83
2022-12-22T08:16:44.842Z,35.72
2022-12-22T08:19:11.768Z,47.08
2022-12-22T08:21:38.623Z,45.65
2022-12-22T08:24:06.069Z,38.25
2022-12-22T08:26:40.973Z,34.63
2022-12-22T08:29:21.588Z,31.85
2022-12-22T08:31:48.608Z,30.17
2022-12-22T08:34:16.258Z,26.05
2022-12-22T08:36:48.412Z,25.70
2022-12-22T08:39:16.293Z,23.45
2022-12-22T08:41:52.242Z,23.33
2022-12-22T08:44:24.912Z,21.67
2022-12-22T08:46:52.664Z,21.52
2022-12-22T08:49:20.031Z,20.00
2022-12-22T08:51:47.206Z,19.88
2022-12-22T08:54:14.422Z,31.13
2022-12-22T08:56:41.643Z,32.13
2022-12-22T08:59:09.297Z,28.35
2022-12-22T09:01:38.591Z,25.50
2022-12-22T09:04:07.096Z,23.13
2022-12-22T09:06:40.610Z,21.80
2022-12-22T09:09:10.485Z,19.92
2022-12-22T09:14:05.390Z,17.67
2022-12-22T09:16:33.913Z,18.13
2022-12-22T09:19:01.141Z,16.77
2022-12-22T09:21:28.501Z,15.95
2022-12-22T09:23:56.269Z,16.40
2022-12-22T09:26:24.492Z,14.95
2022-12-22T09:28:51.665Z,14.85
2022-12-22T09:31:19.953Z,14.95
2022-12-22T09:33:47.110Z,14.55
2022-12-22T09:36:16.292Z,14.15
2022-12-22T09:38:43.335Z,14.70
2022-12-22T09:41:15.457Z,14.82
2022-12-22T09:43:42.903Z,26.30
2022-12-22T09:46:21.012Z,23.92
2022-12-22T09:48:48.018Z,19.88
2022-12-22T09:51:21.061Z,18.85
2022-12-22T09:53:59.721Z,16.35
2022-12-22T09:56:28.164Z,15.15
2022-12-22T09:58:55.109Z,14.63
2022-12-22T10:01:31.217Z,15.10
2022-12-22T10:04:01.777Z,12.88
2022-12-22T10:07:06.681Z,12.50
2022-12-22T10:09:49.420Z,12.15
2022-12-22T10:12:20.701Z,12.05
2022-12-22T10:14:49.353Z,11.82
2022-12-22T10:17:33.865Z,11.68
2022-12-22T10:20:20.631Z,10.95
2022-12-22T10:22:52.930Z,10.43
2022-12-22T10:26:00.573Z,10.38
2022-12-22T10:28:30.706Z,9.43
2022-12-22T10:31:23.034Z,9.02
2022-12-22T10:33:52.881Z,9.20
2022-12-22T10:36:26.800Z,9.32
2022-12-22T10:39:00.147Z,8.73
2022-12-22T10:41:35.133Z,11.60
2022-12-22T10:44:09.457Z,8.48
2022-12-22T10:46:42.638Z,8.55
2022-12-22T10:49:19.090Z,8.55
2022-12-22T10:51:57.833Z,8.02
2022-12-22T10:54:30.553Z,8.23
2022-12-22T10:57:16.614Z,8.02
2022-12-22T10:59:55.523Z,7.30
2022-12-22T11:02:28.693Z,7.38
2022-12-22T11:05:02.933Z,6.93
2022-12-22T11:07:33.310Z,6.50
2022-12-22T11:10:00.337Z,5.85
2022-12-22T11:12:30.062Z,5.82
2022-12-22T11:17:39.798Z,5.80
2022-12-22T11:20:52.398Z,5.18
2022-12-22T11:23:42.335Z,5.68
2022-12-22T11:26:56.851Z,5.22
2022-12-22T11:29:58.899Z,5.15
2022-12-22T11:32:46.735Z,5.10
2022-12-22T11:35:25.645Z,5.00
2022-12-22T11:38:06.201Z,4.55
2022-12-22T11:40:41.747Z,4.70
2022-12-22T11:43:30.543Z,4.20
2022-12-22T11:46:20.128Z,4.82
2022-12-22T11:51:44.856Z,3.85
2022-12-22T11:54:30.003Z,4.00
2022-12-22T11:57:07.871Z,3.13
2022-12-22T11:59:46.642Z,4.07
2022-12-22T12:02:40.472Z,4.07
2022-12-22T12:05:22.614Z,4.43
2022-12-22T12:07:54.536Z,3.63
2022-12-22T12:10:32.193Z,3.17
2022-12-22T12:13:27.419Z,4.15
2022-12-22T12:16:14.433Z,5.45
2022-12-22T12:18:56.300Z,6.97
2022-12-22T12:21:31.266Z,8.95
2022-12-22T12:24:24.285Z,10.07
2022-12-22T12:27:09.782Z,12.60
2022-12-22T12:33:23.619Z,14.25
2022-12-22T12:35:53.463Z,14.90
2022-12-22T12:39:06.926Z,14.07
2022-12-22T12:42:06.196Z,15.30
2022-12-22T12:44:35.751Z,14.23
2022-12-22T12:47:25.910Z,14.82
2022-12-22T12:50:11.655Z,12.77
2022-12-22T12:52:44.107Z,12.75
2022-12-22T12:55:33.442Z,15.32
2022-12-22T12:58:03.430Z,12.70
2022-12-22T13:00:33.568Z,14.40
2022-12-22T13:03:19.969Z,12.88
2022-12-22T13:06:00.633Z,13.18
2022-12-22T13:08:32.155Z,11.95
2022-12-22T13:10:59.060Z,12.82
2022-12-22T13:13:25.992Z,11.80
2022-12-22T13:16:02.182Z,12.77
2022-12-22T13:18:35.334Z,12.13
2022-12-22T13:26:44.987Z,12.73
2022-12-22T13:29:22.207Z,12.20
2022-12-22T13:31:53.185Z,12.07
2022-12-22T13:34:51.010Z,11.57
2022-12-22T13:37:29.109Z,12.07
2022-12-22T13:40:14.931Z,10.13
2022-12-22T13:42:45.946Z,11.15
2022-12-22T13:45:30.085Z,10.82
2022-12-22T13:47:57.077Z,10.15
2022-12-22T13:50:28.160Z,10.10
2022-12-22T13:52:56.024Z,10.38
2022-12-22T13:55:28.849Z,10.90
2022-12-22T13:57:58.820Z,10.20
2022-12-22T14:00:27.038Z,10.07
2022-12-22T14:02:53.966Z,8.95
2022-12-22T14:05:21.252Z,9.45
2022-12-22T14:07:58.772Z,9.18
2022-12-22T14:10:34.563Z,9.48
2022-12-22T14:13:05.921Z,8.85
2022-12-22T14:15:33.065Z,8.55
2022-12-22T14:20:32.345Z,16.30
2022-12-22T14:23:13.881Z,11.82
2022-12-22T14:25:42.733Z,12.63
2022-12-22T14:28:29.500Z,12.93
2022-12-22T14:31:00.965Z,12.23
2022-12-22T14:33:32.975Z,9.90
2022-12-22T14:36:26.904Z,9.35
2022-12-22T14:38:56.132Z,11.35
2022-12-22T14:41:42.902Z,10.85
2022-12-22T14:44:40.488Z,9.88
2022-12-22T14:47:16.042Z,9.18
2022-12-22T14:49:51.510Z,10.48
2022-12-22T14:52:36.145Z,10.90
2022-12-22T14:55:04.845Z,9.48
2022-12-22T14:57:40.833Z,10.50
2022-12-22T15:00:36.315Z,8.40
2022-12-22T15:03:07.467Z,12.07
2022-12-22T15:05:39.195Z,13.65
2022-12-22T15:08:09.243Z,14.68
2022-12-22T15:10:44.396Z,14.10
2022-12-22T15:13:21.799Z,13.23
2022-12-22T15:15:53.371Z,11.77
2022-12-22T15:18:25.764Z,11.25
2022-12-22T15:20:53.694Z,11.93
2022-12-22T15:23:20.731Z,9.65
2022-12-22T15:25:47.696Z,11.38
2022-12-22T15:28:14.726Z,9.77
2022-12-22T15:30:42.126Z,9.80
2022-12-22T15:33:13.400Z,11.75
2022-12-22T15:35:40.869Z,9.52
2022-12-22T15:38:13.357Z,8.90
2022-12-22T15:40:40.442Z,9.77
2022-12-22T15:43:17.273Z,9.80
2022-12-22T15:45:54.657Z,9.82
2022-12-22T15:48:28.910Z,9.32
2022-12-22T15:50:56.172Z,9.77
2022-12-22T15:53:23.161Z,12.55
2022-12-22T15:55:52.222Z,9.85
2022-12-22T15:58:21.243Z,11.07
2022-12-22T16:00:48.292Z,10.38
2022-12-22T16:03:15.573Z,11.05
2022-12-22T16:05:42.873Z,8.73
2022-12-22T16:08:31.462Z,11.50
2022-12-22T16:10:58.439Z,8.30
2022-12-22T16:13:29.001Z,10.55
2022-12-22T16:15:57.805Z,8.75
2022-12-22T16:18:25.030Z,9.82
2022-12-22T16:20:52.097Z,9.35
2022-12-22T16:23:24.849Z,8.45
2022-12-22T16:25:58.774Z,8.63
2022-12-22T16:28:28.182Z,10.23
2022-12-22T16:30:55.108Z,7.78
2022-12-22T16:33:21.987Z,10.25
2022-12-22T16:35:48.867Z,9.90
2022-12-22T16:38:18.858Z,12.23
2022-12-22T16:40:49.487Z,9.55
2022-12-22T16:46:06.633Z,9.98
2022-12-22T16:48:38.271Z,14.57
2022-12-22T16:51:05.313Z,12.40
2022-12-22T16:53:32.348Z,14.88
2022-12-22T16:56:00.235Z,12.38
2022-12-22T16:58:27.202Z,11.90
2022-12-22T17:00:54.265Z,14.07
2022-12-22T17:03:28.532Z,18.80
2022-12-22T17:06:01.083Z,18.77
2022-12-22T17:08:31.549Z,12.35
2022-12-22T17:11:06.258Z,12.52
2022-12-22T17:13:37.828Z,12.18
2022-12-22T17:16:05.680Z,14.75
2022-12-22T17:18:33.669Z,10.30
2022-12-22T17:21:00.829Z,12.98
2022-12-22T17:23:39.781Z,10.43
2022-12-22T17:26:09.612Z,13.32
2022-12-22T17:28:36.754Z,13.82
2022-12-22T17:31:03.741Z,17.92
2022-12-22T17:33:32.428Z,14.02
2022-12-22T17:35:59.714Z,12.57
2022-12-22T17:38:27.388Z,10.80
2022-12-22T17:40:54.550Z,11.02
2022-12-22T17:43:21.904Z,14.02
2022-12-22T17:45:49.246Z,14.63
2022-12-22T17:48:16.752Z,11.90
2022-12-22T17:50:47.671Z,12.27
2022-12-22T17:53:18.472Z,14.05
2022-12-22T17:58:33.531Z,13.82
2022-12-22T18:01:00.469Z,15.52
2022-12-22T18:03:27.485Z,15.13
2022-12-22T18:05:55.098Z,14.25
2022-12-22T18:08:22.404Z,13.40
2022-12-22T18:10:49.952Z,12.65
2022-12-22T18:13:20.929Z,11.65
2022-12-22T18:15:47.981Z,13.73
2022-12-22T18:18:16.660Z,15.23
2022-12-22T18:23:23.667Z,11.45
2022-12-22T18:25:51.017Z,14.40
2022-12-22T18:28:18.084Z,11.00
2022-12-22T18:30:45.383Z,12.15
2022-12-22T18:33:12.454Z,12.70
2022-12-22T18:35:40.035Z,10.70
2022-12-22T18:38:07.838Z,10.82
2022-12-22T18:40:37.192Z,10.00
2022-12-22T18:43:10.159Z,11.45
2022-12-22T18:45:37.103Z,9.40
2022-12-22T18:48:04.459Z,9.05
2022-12-22T18:50:32.597Z,8.50
2022-12-22T18:53:02.833Z,8.30
2022-12-22T18:55:31.763Z,9.43
2022-12-22T18:57:59.701Z,9.32
2022-12-22T19:00:32.271Z,10.38
2022-12-22T19:03:00.606Z,8.90
2022-12-22T19:05:32.143Z,7.82
2022-12-22T19:07:59.630Z,6.60
2022-12-22T19:10:34.261Z,9.30
2022-12-22T19:13:02.127Z,8.02
2022-12-22T19:15:41.037Z,8.93
2022-12-22T19:18:16.116Z,8.95
2022-12-22T19:20:45.856Z,7.07
2022-12-22T19:23:14.644Z,8.90
2022-12-22T19:30:50.866Z,6.47
2022-12-22T19:33:26.208Z,10.65
2022-12-22T19:35:53.400Z,7.43
2022-12-22T19:38:24.728Z,6.07
2022-12-22T19:40:53.006Z,7.65
2022-12-22T19:43:20.225Z,7.60
2022-12-22T19:45:50.459Z,7.47
2022-12-22T19:48:19.678Z,9.15
2022-12-22T19:50:47.303Z,7.07
2022-12-22T19:53:14.720Z,6.57
2022-12-22T19:55:44.393Z,8.60
2022-12-22T20:00:40.413Z,8.23
2022-12-22T20:03:12.473Z,9.75
2022-12-22T20:05:39.935Z,12.95
2022-12-22T20:08:07.797Z,11.07
2022-12-22T20:10:35.195Z,9.23
2022-12-22T20:13:05.060Z,12.70
2022-12-22T20:15:35.772Z,11.70
2022-12-22T20:18:04.038Z,10.07
2022-12-22T20:20:36.580Z,8.15
2022-12-22T20:23:20.302Z,7.78
2022-12-22T20:25:53.513Z,8.55
2022-12-22T20:28:24.356Z,7.82
2022-12-22T20:30:52.094Z,6.07
2022-12-22T20:33:20.701Z,7.25
2022-12-22T20:35:48.690Z,7.10
2022-12-22T20:38:27.833Z,6.45
2022-12-22T20:40:54.968Z,8.48
2022-12-22T20:43:23.410Z,8.00
2022-12-22T20:45:53.489Z,7.03
2022-12-22T20:48:34.147Z,6.35
2022-12-22T20:51:02.377Z,6.30
2022-12-22T20:53:29.605Z,6.35
2022-12-22T20:55:56.993Z,7.65
2022-12-22T20:58:34.231Z,15.25
2022-12-22T21:01:02.248Z,13.48
2022-12-22T21:03:29.242Z,12.02
2022-12-22T21:05:56.212Z,11.60
2022-12-22T21:08:25.258Z,10.65
2022-12-22T21:10:54.029Z,8.75
2022-12-22T21:13:21.680Z,8.83
2022-12-22T21:15:51.935Z,8.60
2022-12-22T21:18:23.775Z,10.32
2022-12-22T21:20:51.424Z,7.45
2022-12-22T21:23:18.389Z,9.50
2022-12-22T21:25:48.683Z,6.80
2022-12-22T21:28:31.444Z,10.52
2022-12-22T21:30:58.795Z,14.95
2022-12-22T21:33:26.640Z,13.90
2022-12-22T21:35:54.695Z,12.40
2022-12-22T21:38:23.904Z,10.60
2022-12-22T21:40:51.143Z,10.82
2022-12-22T21:43:18.140Z,13.23
2022-12-22T21:45:45.488Z,9.50
2022-12-22T21:48:13.945Z,8.05
2022-12-22T21:50:41.303Z,7.88
2022-12-22T21:53:08.613Z,6.78
2022-12-22T21:55:37.768Z,7.90
2022-12-22T21:58:06.277Z,10.38
2022-12-22T22:00:34.372Z,6.13
2022-12-22T22:03:04.319Z,6.30
2022-12-22T22:05:36.117Z,5.95
2022-12-22T22:08:04.930Z,5.50
2022-12-22T22:10:40.993Z,5.33
2022-12-22T22:13:18.565Z,7.20
2022-12-22T22:15:45.530Z,6.10
2022-12-22T22:18:17.314Z,7.43
2022-12-22T22:20:44.741Z,5.40
2022-12-22T22:23:13.548Z,4.93
2022-12-22T22:25:40.605Z,4.20
2022-12-22T22:28:07.659Z,5.05
2022-12-22T22:30:34.540Z,6.03
2022-12-22T22:33:01.409Z,5.35
2022-12-22T22:35:28.379Z,4.70
2022-12-22T22:37:56.053Z,7.93
2022-12-22T22:40:23.552Z,4.32
2022-12-22T22:42:50.444Z,4.40
2022-12-22T22:45:24.103Z,4.45
2022-12-22T22:47:52.289Z,4.13
2022-12-22T22:50:22.709Z,4.75
2022-12-22T22:52:49.952Z,15.80
2022-12-22T22:55:17.128Z,14.48
2022-12-22T22:57:44.040Z,11.88
2022-12-22T23:00:12.962Z,10.60
2022-12-22T23:02:40.233Z,10.00
2022-12-22T23:05:07.753Z,11.18
2022-12-22T23:07:35.665Z,7.53
2022-12-22T23:10:02.923Z,6.78
2022-12-22T23:12:29.865Z,6.43
2022-12-22T23:14:56.877Z,5.93
2022-12-22T23:17:26.937Z,5.38
2022-12-22T23:19:53.646Z,5.70
2022-12-22T23:22:20.493Z,5.70
2022-12-22T23:24:47.231Z,6.13
2022-12-22T23:27:14.069Z,5.15
2022-12-22T23:29:58.346Z,5.75
2022-12-22T23:32:26.760Z,4.65
2022-12-22T23:34:55.369Z,5.63
2022-12-22T23:37:24.490Z,5.25
2022-12-22T23:39:54.585Z,4.93
2022-12-22T23:42:25.027Z,4.55
2022-12-22T23:44:53.585Z,4.38
2022-12-22T23:47:22.945Z,9.43
2022-12-22T23:49:49.811Z,10.73
2022-12-22T23:52:16.774Z,10.60
2022-12-22T23:54:43.609Z,9.05
2022-12-22T23:57:10.474Z,10.30
2022-12-22T23:59:37.312Z,7.70
